Time;durP1;ratioP1;P1;durP2;ratioP2;P2;SDS_P1;SDS_P2;PMS_P1;PMS_P2;Temp;Humidity;BMP_temperature;BMP_pressure;BME280_temperature;BME280_humidity;BME280_pressure;Samples;Min_cycle;Max_cycle;Signal;HPM_P1;HPM_P2
2022/04/20 00:00:01;;;;;;;25.63;16.98;;;26.00;93.20;;;;;;4157970;28;20045;-71
2022/04/20 00:02:16;;;;;;;19.08;14.55;;;26.10;93.20;;;;;;4161866;28;20045;-71
2022/04/20 00:04:21;;;;;;;16.85;12.85;;;26.10;93.10;;;;;;4173677;28;20065;-72
2022/04/20 00:06:27;;;;;;;18.73;13.48;;;26.10;92.80;;;;;;4162027;28;20120;-71
2022/04/20 00:08:37;;;;;;;17.17;13.00;;;26.20;92.50;;;;;;4159231;28;20045;-71
2022/04/20 00:10:44;;;;;;;18.98;12.15;;;26.30;92.60;;;;;;4159907;28;20128;-71
2022/04/20 00:12:51;;;;;;;17.48;11.65;;;26.40;92.50;;;;;;4176891;28;20053;-70
2022/04/20 00:14:59;;;;;;;18.58;11.50;;;26.50;92.00;;;;;;4163064;28;20046;-69
2022/04/20 00:17:06;;;;;;;18.17;10.02;;;26.60;91.80;;;;;;4161860;28;20492;-70
2022/04/20 00:19:12;;;;;;;12.68;9.20;;;26.50;91.60;;;;;;4163656;28;20578;-70
2022/04/20 00:21:20;;;;;;;19.48;10.38;;;26.50;91.10;;;;;;4157879;28;20056;-70
2022/04/20 00:23:25;;;;;;;14.75;9.45;;;26.40;91.20;;;;;;4161104;28;20073;-71
2022/04/20 00:25:46;;;;;;;14.63;9.00;;;26.40;91.20;;;;;;4159177;28;20065;-71
2022/04/20 00:27:53;;;;;;;13.85;9.02;;;26.50;90.90;;;;;;4158212;28;20049;-70
2022/04/20 00:29:59;;;;;;;12.88;8.27;;;26.60;90.80;;;;;;4176244;28;20495;-71
2022/04/20 00:32:09;;;;;;;12.20;8.68;;;26.50;90.80;;;;;;4160291;28;20050;-71
2022/04/20 00:34:20;;;;;;;13.57;8.50;;;26.50;90.90;;;;;;4153975;28;20054;-72
2022/04/20 00:36:25;;;;;;;14.07;8.75;;;26.40;91.10;;;;;;4157751;28;20054;-71
2022/04/20 00:38:30;;;;;;;12.73;7.25;;;26.50;91.10;;;;;;4159034;28;20073;-71
2022/04/20 00:40:38;;;;;;;9.20;7.10;;;26.40;90.90;;;;;;4161688;28;20045;-70
2022/04/20 00:42:43;;;;;;;8.90;6.85;;;26.40;91.00;;;;;;4163522;28;20322;-71
2022/04/20 00:44:56;;;;;;;;;;;26.50;90.80;;;;;;4162525;28;20448;-69
2022/04/20 00:47:09;;;;;;;10.38;6.97;;;26.50;90.90;;;;;;4160964;28;19979;-69
2022/04/20 00:49:15;;;;;;;8.40;6.70;;;26.70;90.90;;;;;;4160282;28;20423;-69
2022/04/20 00:51:23;;;;;;;8.57;6.63;;;26.70;90.80;;;;;;4164185;28;20153;-69
2022/04/20 00:53:33;;;;;;;7.82;5.95;;;26.80;90.50;;;;;;4156682;28;20463;-69
2022/04/20 00:55:39;;;;;;;8.38;5.75;;;26.80;90.10;;;;;;4154625;28;20604;-69
2022/04/20 00:57:46;;;;;;;9.38;5.90;;;27.00;89.20;;;;;;4164181;28;20033;-68
2022/04/20 00:59:57;;;;;;;8.48;5.75;;;27.00;89.50;;;;;;4171818;28;20159;-69
2022/04/20 01:02:04;;;;;;;9.80;5.72;;;27.10;89.00;;;;;;4159238;28;20049;-70
2022/04/20 01:04:10;;;;;;;10.52;5.65;;;27.10;88.90;;;;;;4164456;28;20041;-71
2022/04/20 01:06:29;;;;;;;9.75;5.65;;;27.20;88.80;;;;;;4163028;28;20045;-71
2022/04/20 01:08:40;;;;;;;7.55;5.68;;;27.20;88.20;;;;;;4165650;28;20061;-71
2022/04/20 01:10:59;;;;;;;8.95;5.50;;;27.30;88.20;;;;;;4159141;28;20045;-71
2022/04/20 01:13:27;;;;;;;9.05;5.90;;;27.30;88.00;;;;;;4149379;28;20046;-72
2022/04/20 01:15:48;;;;;;;9.15;6.15;;;27.50;88.20;;;;;;4158825;28;20489;-72
2022/04/20 01:18:17;;;;;;;9.85;6.05;;;27.40;88.20;;;;;;4156761;28;20046;-73
2022/04/20 01:20:32;;;;;;;7.60;5.30;;;27.50;88.40;;;;;;4167668;28;20083;-72
2022/04/20 01:22:48;;;;;;;14.63;5.82;;;27.30;87.40;;;;;;4163878;28;20056;-73
2022/04/20 01:25:07;;;;;;;8.35;5.70;;;27.40;88.10;;;;;;4157044;28;20067;-73
2022/04/20 01:27:38;;;;;;;10.82;5.22;;;27.40;87.60;;;;;;4140883;28;20077;-74
2022/04/20 01:30:00;;;;;;;6.38;5.13;;;27.50;88.20;;;;;;4167522;28;20053;-75
2022/04/20 01:32:26;;;;;;;7.68;4.93;;;27.60;87.50;;;;;;4147204;28;20049;-73
2022/04/20 01:34:45;;;;;;;11.73;5.03;;;27.70;86.70;;;;;;4145310;28;20049;-73
2022/04/20 01:36:50;;;;;;;8.18;4.72;;;27.80;86.80;;;;;;4147200;28;20045;-72
2022/04/20 01:38:56;;;;;;;4.97;4.40;;;27.80;86.30;;;;;;4159577;28;20057;-72
2022/04/20 01:41:05;;;;;;;7.35;4.65;;;27.90;86.30;;;;;;4144961;28;20175;-72
2022/04/20 01:43:11;;;;;;;5.93;4.63;;;27.90;86.10;;;;;;4137025;28;20560;-72
2022/04/20 01:45:30;;;;;;;8.10;4.75;;;28.00;86.30;;;;;;4171521;28;20057;-73
2022/04/20 01:47:49;;;;;;;7.07;4.90;;;28.10;86.30;;;;;;4113543;28;20110;-73
2022/04/20 01:50:08;;;;;;;6.18;4.75;;;28.10;86.80;;;;;;4158453;28;20045;-72
2022/04/20 01:52:33;;;;;;;6.75;5.03;;;28.20;85.90;;;;;;4145323;28;20069;-72
2022/04/20 01:54:59;;;;;;;6.55;4.45;;;28.20;85.70;;;;;;4141485;28;20077;-72
2022/04/20 01:57:18;;;;;;;7.35;5.05;;;28.30;85.60;;;;;;4152749;28;20067;-72
2022/04/20 01:59:34;;;;;;;8.45;5.40;;;28.20;85.10;;;;;;4152072;28;20046;-72
2022/04/20 02:04:14;;;;;;;8.55;4.80;;;28.10;85.10;;;;;;4146164;28;20149;-72
2022/04/20 02:06:19;;;;;;;9.68;5.97;;;28.20;84.80;;;;;;4151847;28;20049;-72
2022/04/20 02:08:39;;;;;;;10.60;6.65;;;28.30;84.80;;;;;;4137116;28;20047;-73
2022/04/20 02:11:03;;;;;;;8.98;6.40;;;28.40;84.90;;;;;;4157518;28;20103;-73
2022/04/20 02:13:08;;;;;;;7.25;6.38;;;28.50;85.00;;;;;;4155757;28;20069;-73
2022/04/20 02:15:17;;;;;;;9.18;4.63;;;28.50;84.80;;;;;;4151855;28;20107;-73
2022/04/20 02:17:43;;;;;;;7.53;4.90;;;28.30;84.70;;;;;;4146485;28;20045;-72
2022/04/20 02:20:00;;;;;;;9.40;5.13;;;28.00;84.40;;;;;;4155933;28;20061;-73
2022/04/20 02:22:05;;;;;;;7.63;4.45;;;28.10;84.90;;;;;;4147953;28;20049;-72
2022/04/20 02:24:15;;;;;;;7.65;4.88;;;28.20;84.30;;;;;;4142852;28;20050;-73
2022/04/20 02:26:21;;;;;;;6.50;5.03;;;28.30;84.20;;;;;;4155476;28;20076;-73
2022/04/20 02:28:27;;;;;;;9.02;4.82;;;28.40;83.90;;;;;;4150840;28;20046;-74
2022/04/20 02:30:34;;;;;;;5.95;4.55;;;28.60;83.70;;;;;;4154228;28;20132;-73
2022/04/20 02:32:40;;;;;;;6.35;5.00;;;28.60;83.30;;;;;;4147989;28;20041;-73
2022/04/20 02:34:45;;;;;;;8.88;4.82;;;28.50;83.50;;;;;;4169474;28;20084;-73
2022/04/20 02:36:50;;;;;;;6.85;4.68;;;28.60;83.40;;;;;;4144480;28;20077;-73
2022/04/20 02:38:57;;;;;;;6.78;4.95;;;28.60;83.10;;;;;;4157676;28;20076;-73
2022/04/20 02:41:04;;;;;;;6.45;4.50;;;28.60;82.90;;;;;;4150526;28;20045;-73
2022/04/20 02:43:13;;;;;;;6.88;4.63;;;28.70;83.20;;;;;;4155268;28;20103;-72
2022/04/20 02:45:19;;;;;;;7.80;4.32;;;28.80;82.90;;;;;;4157847;28;20072;-73
2022/04/20 02:47:28;;;;;;;5.85;4.60;;;28.90;82.80;;;;;;4157074;28;20640;-73
2022/04/20 02:49:35;;;;;;;7.40;4.90;;;28.90;82.30;;;;;;4145983;28;20046;-73
2022/04/20 02:51:41;;;;;;;8.38;4.65;;;28.90;82.90;;;;;;4135200;28;20084;-73
2022/04/20 02:53:50;;;;;;;7.00;4.45;;;29.10;83.00;;;;;;4147079;28;20037;-73
2022/04/20 02:55:57;;;;;;;7.05;4.60;;;29.10;82.80;;;;;;4156925;28;20069;-73
2022/04/20 02:58:03;;;;;;;5.93;4.45;;;29.20;82.90;;;;;;4167455;28;20168;-73
2022/04/20 03:00:18;;;;;;;6.95;4.15;;;29.30;83.00;;;;;;4164159;28;20048;-71
2022/04/20 03:02:42;;;;;;;8.05;4.28;;;29.50;83.00;;;;;;4139948;28;20052;-72
2022/04/20 03:04:47;;;;;;;7.60;4.25;;;29.50;82.60;;;;;;4149594;28;20053;-73
2022/04/20 03:07:01;;;;;;;7.03;4.20;;;29.60;82.60;;;;;;4140976;28;20045;-72
2022/04/20 03:09:18;;;;;;;6.05;3.85;;;29.60;82.40;;;;;;4148776;28;20046;-72
2022/04/20 03:11:26;;;;;;;8.05;4.15;;;29.70;82.50;;;;;;4148050;28;20128;-72
2022/04/20 03:13:33;;;;;;;9.52;4.45;;;29.70;81.80;;;;;;4170190;28;20336;-73
2022/04/20 03:15:42;;;;;;;11.60;4.82;;;29.70;82.10;;;;;;4143810;28;20733;-72
2022/04/20 03:17:47;;;;;;;8.38;4.35;;;29.80;81.80;;;;;;4137915;28;20053;-72
2022/04/20 03:19:53;;;;;;;7.43;4.18;;;29.80;81.80;;;;;;4155183;28;20045;-71
2022/04/20 03:21:58;;;;;;;7.28;4.22;;;29.90;82.00;;;;;;4162360;28;20055;-72
2022/04/20 03:24:05;;;;;;;7.75;4.10;;;30.00;82.10;;;;;;4159788;28;20050;-73
2022/04/20 03:26:35;;;;;;;6.65;4.53;;;30.00;81.50;;;;;;4119533;28;20087;-72
2022/04/20 03:28:54;;;;;;;8.27;4.72;;;30.00;80.60;;;;;;4149895;28;20117;-73
2022/04/20 03:31:02;;;;;;;9.63;4.95;;;29.50;81.00;;;;;;4159249;28;20045;-73
2022/04/20 03:33:09;;;;;;;6.97;4.20;;;29.50;82.20;;;;;;4137725;28;20052;-73
2022/04/20 03:35:16;;;;;;;10.15;4.85;;;29.70;82.10;;;;;;4155484;28;20052;-72
2022/04/20 03:37:21;;;;;;;6.95;4.50;;;29.90;82.30;;;;;;4112218;28;20199;-73
2022/04/20 03:39:26;;;;;;;10.02;4.22;;;30.00;82.20;;;;;;4126733;28;20062;-73
2022/04/20 03:41:31;;;;;;;6.60;4.45;;;30.20;82.30;;;;;;4131023;28;20128;-73
2022/04/20 03:43:36;;;;;;;8.82;5.00;;;30.20;81.40;;;;;;4120794;28;20088;-72
2022/04/20 03:45:43;;;;;;;6.63;4.05;;;30.10;81.20;;;;;;4116400;28;20038;-70
2022/04/20 03:47:49;;;;;;;6.60;4.15;;;30.20;81.00;;;;;;4134385;28;20042;-73
2022/04/20 03:49:57;;;;;;;6.50;4.22;;;30.20;81.10;;;;;;4136881;28;20058;-72
2022/04/20 03:52:07;;;;;;;7.65;4.30;;;30.30;80.90;;;;;;4115277;28;20308;-72
2022/04/20 03:54:15;;;;;;;5.68;4.07;;;30.40;80.70;;;;;;4115020;28;20042;-71
2022/04/20 03:56:22;;;;;;;6.40;4.18;;;30.50;81.40;;;;;;4107009;28;20090;-71
2022/04/20 03:58:32;;;;;;;7.38;4.25;;;30.50;80.50;;;;;;4098512;28;20678;-73
2022/04/20 04:00:47;;;;;;;6.75;3.95;;;30.30;80.30;;;;;;4117044;28;20101;-72
2022/04/20 04:02:57;;;;;;;7.63;4.18;;;30.30;80.60;;;;;;4120330;28;20054;-71
2022/04/20 04:05:20;;;;;;;5.43;3.97;;;30.20;81.20;;;;;;4125126;28;20039;-72
2022/04/20 04:07:28;;;;;;;6.07;4.40;;;30.20;81.00;;;;;;4126513;28;20054;-72
2022/04/20 04:09:34;;;;;;;7.70;4.47;;;30.30;81.00;;;;;;4123483;28;20050;-71
2022/04/20 04:11:42;;;;;;;7.05;4.13;;;30.40;80.90;;;;;;4120834;28;20055;-73
2022/04/20 04:13:47;;;;;;;5.05;3.80;;;30.60;80.30;;;;;;4139069;28;20050;-74
2022/04/20 04:16:08;;;;;;;9.52;4.40;;;30.50;80.10;;;;;;4148911;28;20053;-73
2022/04/20 04:18:19;;;;;;;8.95;4.25;;;30.70;79.80;;;;;;4139802;28;20050;-73
2022/04/20 04:20:29;;;;;;;11.30;4.28;;;30.80;80.20;;;;;;4153903;28;20428;-73
2022/04/20 04:22:36;;;;;;;7.20;4.60;;;30.90;80.10;;;;;;4134956;28;20057;-73
2022/04/20 04:24:57;;;;;;;5.25;4.13;;;31.00;80.30;;;;;;4154178;28;20081;-72
2022/04/20 04:27:06;;;;;;;7.20;4.68;;;31.10;79.80;;;;;;4150725;28;20815;-73
2022/04/20 04:29:15;;;;;;;9.80;4.03;;;31.10;80.00;;;;;;4156702;28;20389;-73
2022/04/20 04:31:24;;;;;;;9.13;4.88;;;31.10;79.50;;;;;;4160576;28;20051;-74
2022/04/20 04:33:31;;;;;;;7.28;4.70;;;31.00;78.30;;;;;;4149881;28;20077;-74
2022/04/20 04:35:40;;;;;;;7.07;4.78;;;30.90;79.80;;;;;;4163166;28;20144;-73
2022/04/20 04:37:50;;;;;;;7.57;4.43;;;31.00;79.80;;;;;;4163527;28;20112;-71
2022/04/20 04:40:02;;;;;;;6.50;4.40;;;31.20;80.00;;;;;;4161163;28;20077;-72
2022/04/20 04:42:09;;;;;;;7.70;4.72;;;31.30;79.80;;;;;;4147388;28;20456;-72
2022/04/20 04:44:19;;;;;;;8.10;4.22;;;31.40;79.60;;;;;;4148129;28;20038;-72
2022/04/20 04:48:50;;;;;;;7.63;4.47;;;31.50;77.80;;;;;;4161460;28;20864;-72
2022/04/20 04:51:01;;;;;;;6.72;4.32;;;31.50;78.80;;;;;;4129075;28;20046;-72
2022/04/20 04:53:08;;;;;;;6.32;3.97;;;31.50;78.20;;;;;;4141765;28;20050;-74
2022/04/20 04:55:16;;;;;;;5.85;4.07;;;31.40;77.40;;;;;;4164659;28;20053;-72
2022/04/20 04:57:23;;;;;;;6.15;4.32;;;31.40;78.20;;;;;;4146959;28;20433;-71
2022/04/20 04:59:29;;;;;;;5.03;4.25;;;31.50;77.70;;;;;;4158537;28;20089;-73
2022/04/20 05:01:34;;;;;;;5.80;4.22;;;31.60;77.80;;;;;;4155688;28;20489;-72
2022/04/20 05:03:53;;;;;;;5.65;4.18;;;31.60;77.90;;;;;;4160152;28;20045;-71
2022/04/20 05:05:58;;;;;;;4.65;3.85;;;31.70;78.30;;;;;;4167952;28;20041;-72
2022/04/20 05:08:15;;;;;;;5.95;4.18;;;31.70;77.70;;;;;;4159687;28;20058;-73
2022/04/20 05:10:22;;;;;;;5.97;3.90;;;31.50;77.10;;;;;;4170733;28;20072;-74
2022/04/20 05:12:33;;;;;;;5.68;4.78;;;31.40;78.00;;;;;;4151032;28;20069;-73
2022/04/20 05:14:39;;;;;;;5.90;4.32;;;31.50;78.50;;;;;;4157997;28;20045;-74
2022/04/20 05:16:51;;;;;;;4.95;4.28;;;31.50;77.40;;;;;;4156097;28;20050;-73
2022/04/20 05:18:57;;;;;;;8.68;4.07;;;31.60;77.20;;;;;;4149353;28;20143;-73
2022/04/20 05:21:02;;;;;;;5.78;4.22;;;31.70;77.60;;;;;;4175462;28;20048;-73
2022/04/20 05:23:09;;;;;;;5.85;4.00;;;31.70;77.00;;;;;;4169915;28;20041;-73
2022/04/20 05:25:16;;;;;;;7.00;4.78;;;31.80;77.40;;;;;;4157620;28;20548;-74
2022/04/20 05:27:23;;;;;;;6.93;4.55;;;32.00;76.90;;;;;;4145090;28;20034;-73
2022/04/20 05:29:40;;;;;;;10.00;5.63;;;31.90;76.80;;;;;;4154808;28;20072;-72
2022/04/20 05:31:46;;;;;;;5.90;4.32;;;31.70;77.00;;;;;;4133629;28;20880;-72
2022/04/20 05:33:57;;;;;;;7.00;4.90;;;31.80;77.80;;;;;;4149930;28;20041;-72
2022/04/20 05:36:07;;;;;;;6.47;4.45;;;32.00;77.70;;;;;;4151635;28;20156;-72
2022/04/20 05:42:59;;;;;;;6.78;4.53;;;31.90;77.50;;;;;;4143583;28;20049;-73
2022/04/20 05:45:06;;;;;;;7.68;4.93;;;32.10;77.80;;;;;;4153056;28;20068;-72
2022/04/20 05:47:11;;;;;;;7.13;4.40;;;32.20;77.10;;;;;;4143515;28;20050;-72
2022/04/20 05:49:21;;;;;;;7.68;4.63;;;32.20;77.70;;;;;;4159517;28;20045;-71
2022/04/20 05:51:26;;;;;;;5.95;4.18;;;32.30;78.30;;;;;;4171411;28;20103;-72
2022/04/20 05:53:31;;;;;;;9.73;4.60;;;32.30;78.00;;;;;;4143518;28;20045;-71
2022/04/20 05:55:42;;;;;;;7.55;4.35;;;32.30;77.90;;;;;;4146542;28;20053;-72
2022/04/20 05:57:50;;;;;;;6.05;4.75;;;32.50;78.00;;;;;;4141451;28;20497;-72
2022/04/20 05:59:56;;;;;;;13.63;5.00;;;32.40;76.50;;;;;;4151539;28;20092;-73
2022/04/20 06:02:07;;;;;;;9.05;4.80;;;32.20;76.70;;;;;;4167317;28;20049;-74
2022/04/20 06:04:13;;;;;;;6.88;4.18;;;32.20;77.90;;;;;;4135297;28;20085;-72
2022/04/20 06:06:25;;;;;;;6.90;4.93;;;32.40;77.80;;;;;;4150646;28;20052;-72
2022/04/20 06:08:36;;;;;;;6.40;5.13;;;32.40;77.50;;;;;;4147481;28;20045;-72
2022/04/20 06:10:57;;;;;;;6.13;4.45;;;32.30;77.50;;;;;;4147066;28;20773;-74
2022/04/20 06:13:04;;;;;;;7.25;4.60;;;32.40;77.80;;;;;;4149661;28;20050;-72
2022/04/20 06:15:15;;;;;;;9.23;4.88;;;32.30;77.90;;;;;;4143173;28;20042;-72
2022/04/20 06:17:34;;;;;;;6.20;4.65;;;32.40;77.70;;;;;;4151591;28;20041;-72
2022/04/20 06:19:40;;;;;;;6.55;4.75;;;32.40;77.10;;;;;;4163280;28;20549;-73
2022/04/20 06:22:13;;;;;;;5.95;4.60;;;32.30;77.50;;;;;;4153794;28;20037;-72
2022/04/20 06:24:38;;;;;;;8.35;5.18;;;32.30;77.30;;;;;;4154498;28;20070;-74
2022/04/20 06:27:00;;;;;;;8.68;5.20;;;32.40;77.00;;;;;;4149782;28;20393;-73
2022/04/20 06:29:23;;;;;;;6.85;4.75;;;32.30;76.40;;;;;;4165263;28;20128;-74
2022/04/20 06:31:47;;;;;;;6.95;4.72;;;32.10;77.20;;;;;;4156973;28;20481;-73
2022/04/20 06:34:04;;;;;;;6.22;4.22;;;32.30;77.60;;;;;;4157779;28;20037;-72
2022/04/20 06:36:33;;;;;;;7.22;4.80;;;32.40;77.90;;;;;;4168862;28;20041;-74
2022/04/20 06:38:52;;;;;;;6.88;4.82;;;32.50;77.10;;;;;;4173872;28;20049;-74
2022/04/20 06:41:19;;;;;;;7.78;5.00;;;32.70;76.90;;;;;;4141662;28;20046;-73
2022/04/20 06:43:36;;;;;;;7.03;4.95;;;32.80;76.60;;;;;;4155719;28;20045;-72
2022/04/20 06:46:01;;;;;;;7.10;4.80;;;33.00;75.90;;;;;;4149747;28;20941;-71
2022/04/20 06:48:18;;;;;;;7.07;4.70;;;33.00;75.60;;;;;;4150458;28;20104;-71
2022/04/20 06:50:47;;;;;;;7.50;4.45;;;33.10;74.50;;;;;;4160880;28;20049;-69
2022/04/20 07:00:08;;;;;;;15.02;5.22;;;32.80;75.10;;;;;;4143186;28;20137;-73
2022/04/20 07:02:27;;;;;;;7.75;4.85;;;32.80;75.90;;;;;;4152333;28;20045;-74
2022/04/20 07:04:46;;;;;;;7.53;4.40;;;32.80;75.70;;;;;;4150568;28;20132;-74
2022/04/20 07:07:11;;;;;;;7.30;5.22;;;32.80;76.30;;;;;;4144385;28;20037;-74
2022/04/20 07:09:36;;;;;;;11.65;4.75;;;32.80;76.10;;;;;;4156123;28;20053;-73
2022/04/20 07:11:55;;;;;;;7.65;4.32;;;32.90;75.70;;;;;;4132552;28;20046;-73
2022/04/20 07:14:00;;;;;;;7.07;5.00;;;32.80;75.50;;;;;;4140793;28;20132;-73
2022/04/20 07:16:06;;;;;;;7.13;4.88;;;32.90;76.00;;;;;;4153857;28;20208;-73
2022/04/20 07:18:17;;;;;;;8.75;5.15;;;32.60;74.80;;;;;;4107309;28;20554;-74
2022/04/20 07:20:42;;;;;;;7.65;5.00;;;32.60;75.50;;;;;;4151576;28;20045;-74
2022/04/20 07:23:03;;;;;;;7.40;4.80;;;32.80;76.00;;;;;;4153111;28;20626;-72
2022/04/20 07:25:16;;;;;;;6.63;4.82;;;32.90;75.90;;;;;;4158759;28;20049;-72
2022/04/20 07:27:34;;;;;;;8.43;5.22;;;33.00;75.40;;;;;;4145742;28;20046;-71
2022/04/20 07:29:55;;;;;;;7.82;5.03;;;32.90;74.30;;;;;;4127272;28;20444;-72
2022/04/20 07:32:22;;;;;;;8.35;4.93;;;32.90;74.80;;;;;;4160560;28;20044;-73
2022/04/20 07:34:41;;;;;;;8.00;4.93;;;33.00;74.80;;;;;;4163961;28;20037;-73
2022/04/20 07:37:07;;;;;;;6.72;4.80;;;33.10;75.20;;;;;;4158441;28;20952;-72
2022/04/20 07:39:13;;;;;;;5.45;4.40;;;33.10;75.20;;;;;;4160742;28;20048;-73
2022/04/20 07:41:39;;;;;;;10.27;5.15;;;32.90;75.30;;;;;;4159791;28;20041;-73
2022/04/20 07:44:03;;;;;;;5.95;4.53;;;33.00;75.50;;;;;;4152483;28;20098;-72
2022/04/20 07:46:20;;;;;;;5.30;4.60;;;33.00;74.40;;;;;;4153110;28;20037;-73
2022/04/20 07:48:40;;;;;;;7.72;5.03;;;32.90;75.90;;;;;;4158365;28;20053;-73
2022/04/20 07:51:05;;;;;;;7.50;4.97;;;32.90;75.40;;;;;;4149688;28;20038;-73
2022/04/20 07:53:23;;;;;;;6.68;4.45;;;32.90;75.40;;;;;;4149279;28;20385;-72
2022/04/20 07:55:46;;;;;;;8.57;4.95;;;33.10;74.80;;;;;;4151072;28;20096;-72
2022/04/20 07:58:00;;;;;;;5.78;4.55;;;33.00;74.30;;;;;;4147111;28;20072;-73
2022/04/20 08:00:22;;;;;;;7.40;4.93;;;33.00;75.40;;;;;;4136625;28;20460;-72
2022/04/20 08:02:48;;;;;;;8.88;5.75;;;33.10;74.70;;;;;;4144883;28;20038;-72
2022/04/20 08:05:01;;;;;;;8.65;5.43;;;33.10;74.70;;;;;;4146901;28;20050;-73
2022/04/20 08:07:07;;;;;;;8.05;5.40;;;33.10;74.00;;;;;;4138086;28;20129;-74
2022/04/20 08:09:19;;;;;;;10.85;5.28;;;33.20;74.00;;;;;;4153901;28;20107;-73
2022/04/20 08:11:25;;;;;;;7.40;4.57;;;33.30;74.30;;;;;;4173442;28;20068;-73
2022/04/20 08:16:06;;;;;;;6.82;4.72;;;33.20;74.80;;;;;;4155013;28;20127;-72
2022/04/20 08:18:31;;;;;;;7.35;4.93;;;33.20;74.70;;;;;;4156441;28;20501;-71
2022/04/20 08:20:48;;;;;;;8.50;5.15;;;33.20;74.50;;;;;;4147410;28;20564;-74
2022/04/20 08:22:59;;;;;;;9.13;5.30;;;33.30;74.10;;;;;;4174876;28;20095;-73
2022/04/20 08:25:06;;;;;;;7.85;4.78;;;33.30;74.20;;;;;;4162061;28;20051;-73
2022/04/20 08:27:14;;;;;;;7.93;4.93;;;33.30;73.90;;;;;;4164467;28;20136;-73
2022/04/20 08:29:22;;;;;;;8.48;5.05;;;33.30;73.60;;;;;;4157185;28;20413;-73
2022/04/20 08:31:27;;;;;;;8.35;5.47;;;33.30;73.30;;;;;;4158216;28;20041;-73
2022/04/20 08:33:34;;;;;;;9.35;5.97;;;33.30;72.70;;;;;;4164009;28;20056;-73
2022/04/20 08:35:41;;;;;;;10.27;5.80;;;33.30;73.10;;;;;;4154415;28;20581;-73
2022/04/20 08:37:46;;;;;;;6.60;4.68;;;33.30;73.10;;;;;;4147730;28;20104;-72
2022/04/20 08:39:52;;;;;;;8.98;5.05;;;33.30;73.20;;;;;;4152682;28;20065;-72
2022/04/20 08:42:00;;;;;;;8.13;5.57;;;33.30;72.60;;;;;;4150595;28;20212;-74
2022/04/20 08:44:05;;;;;;;8.27;5.07;;;33.40;72.90;;;;;;4148188;28;20058;-73
2022/04/20 08:46:12;;;;;;;8.18;5.40;;;33.40;73.10;;;;;;4173598;28;20045;-73
2022/04/20 08:48:19;;;;;;;7.53;5.40;;;33.40;73.20;;;;;;4148379;28;20045;-73
2022/04/20 08:50:24;;;;;;;6.20;5.18;;;33.40;73.10;;;;;;4151047;28;20108;-74
2022/04/20 08:52:42;;;;;;;8.40;5.32;;;33.40;73.30;;;;;;4152385;28;20064;-72
2022/04/20 08:54:50;;;;;;;7.28;5.07;;;33.40;73.60;;;;;;4151117;28;20069;-73
2022/04/20 08:59:15;;;;;;;10.27;5.38;;;33.40;74.00;;;;;;4157796;28;20064;-73
2022/04/20 09:01:23;;;;;;;8.60;5.20;;;33.40;74.60;;;;;;4154199;28;20078;-73
2022/04/20 09:03:28;;;;;;;7.22;5.53;;;33.40;74.50;;;;;;4145904;28;20805;-73
2022/04/20 09:05:38;;;;;;;10.10;5.90;;;33.30;73.90;;;;;;4160301;28;20081;-72
2022/04/20 09:07:45;;;;;;;7.43;5.60;;;33.30;74.30;;;;;;4148707;28;20042;-71
2022/04/20 09:09:50;;;;;;;10.10;5.60;;;33.30;74.10;;;;;;4133666;28;20137;-70
2022/04/20 09:11:59;;;;;;;9.75;6.28;;;33.30;74.40;;;;;;4123178;28;20124;-72
2022/04/20 09:14:14;;;;;;;18.80;6.97;;;33.30;75.00;;;;;;4157339;28;20034;-73
2022/04/20 09:16:19;;;;;;;10.45;6.05;;;33.30;75.40;;;;;;4132650;28;20100;-73
2022/04/20 09:18:25;;;;;;;8.73;5.55;;;33.30;75.60;;;;;;4140228;28;20088;-74
2022/04/20 09:20:32;;;;;;;8.32;5.70;;;33.20;75.60;;;;;;4096547;29;20060;-75
2022/04/20 09:22:37;;;;;;;8.02;5.00;;;33.20;75.70;;;;;;4111610;28;20051;-72
2022/04/20 09:25:03;;;;;;;8.35;5.57;;;33.20;75.70;;;;;;4095300;29;20055;-72
2022/04/20 09:27:12;;;;;;;8.40;5.40;;;33.20;75.80;;;;;;4103567;28;20046;-74
2022/04/20 09:29:17;;;;;;;6.90;5.30;;;33.20;75.90;;;;;;4101553;28;20058;-73
2022/04/20 09:31:42;;;;;;;8.45;5.28;;;33.20;75.80;;;;;;4088673;29;20099;-73
2022/04/20 09:33:53;;;;;;;9.35;5.18;;;33.20;75.80;;;;;;4104316;28;20047;-74
2022/04/20 09:35:59;;;;;;;7.28;5.45;;;33.20;76.40;;;;;;4095421;29;20051;-73
2022/04/20 09:38:12;;;;;;;8.20;4.90;;;33.20;76.40;;;;;;4104037;28;20046;-72
2022/04/20 09:40:39;;;;;;;7.65;5.32;;;33.20;76.40;;;;;;4103587;28;20483;-72
2022/04/20 09:43:02;;;;;;;7.95;5.60;;;33.20;76.10;;;;;;4070036;29;20044;-73
2022/04/20 09:45:11;;;;;;;8.93;5.45;;;33.20;75.80;;;;;;4084474;29;20247;-72
2022/04/20 09:49:55;;;;;;;9.20;5.57;;;33.10;75.90;;;;;;4130395;28;20054;-73
2022/04/20 09:52:13;;;;;;;11.30;6.00;;;33.10;75.70;;;;;;4146304;28;20619;-73
2022/04/20 09:54:28;;;;;;;6.95;5.20;;;33.10;76.00;;;;;;4162354;28;20768;-71
2022/04/20 09:56:34;;;;;;;10.25;5.18;;;33.10;76.20;;;;;;4155211;28;20056;-73
2022/04/20 09:58:39;;;;;;;8.35;5.57;;;33.10;76.40;;;;;;4165778;28;20056;-73
2022/04/20 10:00:56;;;;;;;9.10;6.13;;;33.10;76.30;;;;;;4151286;28;20048;-72
2022/04/20 10:03:03;;;;;;;8.18;5.68;;;33.00;76.20;;;;;;4153849;28;20509;-72
2022/04/20 10:05:11;;;;;;;9.32;5.47;;;33.00;76.30;;;;;;4169155;28;20057;-72
2022/04/20 10:07:19;;;;;;;18.38;9.02;;;33.00;76.40;;;;;;4167404;28;20042;-72
2022/04/20 10:09:24;;;;;;;21.70;10.57;;;33.00;76.50;;;;;;4141456;28;20046;-72
2022/04/20 10:11:30;;;;;;;16.40;9.35;;;32.90;76.60;;;;;;4168344;28;20049;-73
2022/04/20 10:13:36;;;;;;;13.57;8.13;;;32.90;76.70;;;;;;4168026;28;20076;-73
2022/04/20 10:18:03;;;;;;;8.50;5.80;;;32.90;76.70;;;;;;4166485;28;20080;-75
2022/04/20 10:20:12;;;;;;;9.45;5.65;;;32.80;76.70;;;;;;4163191;28;20457;-73
2022/04/20 10:22:24;;;;;;;;;;;32.80;76.50;;;;;;4148291;28;20046;-73
2022/04/20 10:24:31;;;;;;;9.73;5.80;;;32.70;76.70;;;;;;4143076;28;19921;-74
2022/04/20 10:26:37;;;;;;;7.55;5.68;;;32.70;76.40;;;;;;4146634;28;20092;-74
2022/04/20 10:28:51;;;;;;;8.70;5.95;;;32.70;76.50;;;;;;4163892;28;20068;-74
2022/04/20 10:31:01;;;;;;;7.22;5.65;;;32.60;76.50;;;;;;4130926;28;20051;-74
2022/04/20 10:33:16;;;;;;;10.18;6.18;;;32.60;76.60;;;;;;4162159;28;20129;-74
2022/04/20 10:35:22;;;;;;;8.77;5.88;;;32.60;77.50;;;;;;4129835;28;20052;-72
2022/04/20 10:37:35;;;;;;;15.77;6.80;;;32.60;78.50;;;;;;4132444;28;20073;-72
2022/04/20 10:39:53;;;;;;;12.55;7.20;;;32.50;79.90;;;;;;4145941;28;20076;-73
2022/04/20 10:42:11;;;;;;;15.35;6.97;;;32.50;79.50;;;;;;4128012;28;20408;-73
2022/04/20 10:44:18;;;;;;;12.65;7.40;;;32.40;80.20;;;;;;4163047;28;20045;-74
2022/04/20 10:46:25;;;;;;;15.60;7.63;;;32.30;80.70;;;;;;4152431;28;20096;-73
2022/04/20 10:48:47;;;;;;;24.45;8.30;;;32.30;81.00;;;;;;4149036;28;20042;-74
2022/04/20 10:51:16;;;;;;;17.65;8.02;;;32.20;80.30;;;;;;4164658;28;20393;-74
2022/04/20 10:53:27;;;;;;;15.88;6.90;;;32.20;80.30;;;;;;4156654;28;20041;-71
2022/04/20 10:55:32;;;;;;;17.95;7.55;;;32.10;79.90;;;;;;4158404;28;20053;-72
2022/04/20 10:57:41;;;;;;;15.23;8.85;;;32.10;81.00;;;;;;4163053;28;20420;-73
2022/04/20 11:00:08;;;;;;;13.07;8.68;;;32.10;81.20;;;;;;4156620;28;20053;-75
2022/04/20 11:02:14;;;;;;;13.75;10.18;;;32.10;81.60;;;;;;4168195;28;20046;-73
2022/04/20 11:04:43;;;;;;;12.82;9.13;;;32.00;81.40;;;;;;4151786;28;20064;-72
2022/04/20 11:07:01;;;;;;;12.20;9.60;;;31.90;81.20;;;;;;4152759;28;20081;-73
2022/04/20 11:09:07;;;;;;;13.50;8.98;;;31.90;81.10;;;;;;4156051;28;20129;-73
2022/04/20 11:21:09;;;;;;;18.52;10.35;;;31.70;81.70;;;;;;4150940;28;20139;-74
2022/04/20 11:23:16;;;;;;;19.88;11.38;;;31.60;82.10;;;;;;4152814;28;20538;-74
2022/04/20 11:25:21;;;;;;;15.23;9.77;;;31.60;82.20;;;;;;4159623;28;20103;-72
2022/04/20 11:27:37;;;;;;;20.90;9.93;;;31.60;82.90;;;;;;4148411;28;20597;-72
2022/04/20 11:29:47;;;;;;;19.95;10.00;;;31.50;83.00;;;;;;4159845;28;20044;-73
2022/04/20 11:31:57;;;;;;;18.42;10.40;;;31.50;83.30;;;;;;4147245;28;20041;-72
2022/04/20 11:34:20;;;;;;;17.67;11.13;;;31.50;83.80;;;;;;4130346;28;20042;-73
2022/04/20 11:36:26;;;;;;;23.35;11.30;;;31.40;83.80;;;;;;4152206;28;20439;-74
2022/04/20 11:38:40;;;;;;;20.92;13.55;;;31.40;84.00;;;;;;4156445;28;20555;-73
2022/04/20 11:40:48;;;;;;;26.20;14.23;;;31.40;84.10;;;;;;4152417;28;20076;-72
2022/04/20 11:43:08;;;;;;;26.17;15.30;;;31.30;84.70;;;;;;4160726;28;20061;-72
2022/04/20 11:45:34;;;;;;;38.88;27.63;;;31.30;85.50;;;;;;4146575;28;20120;-72
2022/04/20 11:47:42;;;;;;;39.83;28.60;;;31.20;84.80;;;;;;4146567;28;20394;-72
2022/04/20 11:49:58;;;;;;;44.97;28.00;;;31.20;84.90;;;;;;4171571;28;20060;-71
2022/04/20 11:52:20;;;;;;;57.90;30.92;;;31.10;85.00;;;;;;4151983;28;20512;-70
2022/04/20 11:54:47;;;;;;;49.25;28.80;;;31.10;84.70;;;;;;4160060;28;20045;-70
2022/04/20 11:56:58;;;;;;;;;;;31.10;85.00;;;;;;4147660;28;20081;-71
2022/04/20 11:59:06;;;;;;;92.75;61.03;;;31.10;85.20;;;;;;4172770;28;19971;-71